createdAt,value
2018-09-12T00:01:57.197Z,4.20
2018-09-12T00:04:29.198Z,8.13
2018-09-12T00:07:01.237Z,6.93
2018-09-12T00:09:31.644Z,6.33
2018-09-12T00:12:02.576Z,5.47
2018-09-12T00:14:32.646Z,7.93
2018-09-12T00:17:04.554Z,6.80
2018-09-12T00:19:34.625Z,5.50
2018-09-12T00:22:07.145Z,5.80
2018-09-12T00:24:37.521Z,6.60
2018-09-12T00:27:09.229Z,6.70
2018-09-12T00:29:39.936Z,4.70
2018-09-12T00:32:11.548Z,6.20
2018-09-12T00:34:43.041Z,5.50
2018-09-12T00:37:14.694Z,9.33
2018-09-12T00:39:45.303Z,6.17
2018-09-12T00:42:15.895Z,7.40
2018-09-12T00:44:47.570Z,6.27
2018-09-12T00:47:19.206Z,9.67
2018-09-12T00:49:50.142Z,5.07
2018-09-12T00:52:21.763Z,5.90
2018-09-12T00:54:52.432Z,8.37
2018-09-12T00:57:23.478Z,7.30
2018-09-12T00:59:54.041Z,9.10
2018-09-12T01:02:24.779Z,4.67
2018-09-12T01:04:55.718Z,6.40
2018-09-12T01:07:27.121Z,4.67
2018-09-12T01:09:57.952Z,6.80
2018-09-12T01:12:28.728Z,5.63
2018-09-12T01:15:00.443Z,10.43
2018-09-12T01:17:32.243Z,6.50
2018-09-12T01:20:02.749Z,4.63
2018-09-12T01:22:34.766Z,4.87
2018-09-12T01:25:04.857Z,7.70
2018-09-12T01:27:35.196Z,10.53
2018-09-12T01:30:10.468Z,7.87
2018-09-12T01:32:40.609Z,7.20
2018-09-12T01:35:11.238Z,8.90
2018-09-12T01:37:42.280Z,8.40
2018-09-12T01:40:13.014Z,6.30
2018-09-12T01:42:45.458Z,11.00
2018-09-12T01:45:18.929Z,5.43
2018-09-12T01:47:50.271Z,4.37
2018-09-12T01:50:21.095Z,10.23
2018-09-12T01:52:52.329Z,8.60
2018-09-12T01:55:23.503Z,5.67
2018-09-12T01:57:54.456Z,4.50
2018-09-12T02:00:30.032Z,6.43
2018-09-12T02:03:00.725Z,4.40
2018-09-12T02:05:32.523Z,6.30
2018-09-12T02:08:04.173Z,7.07
2018-09-12T02:10:35.215Z,5.43
2018-09-12T02:13:06.127Z,5.23
2018-09-12T02:15:37.077Z,5.40
2018-09-12T02:18:08.220Z,4.40
2018-09-12T02:20:39.658Z,6.40
2018-09-12T02:23:10.835Z,4.70
2018-09-12T02:25:41.502Z,6.17
2018-09-12T02:28:13.901Z,9.53
2018-09-12T02:30:44.743Z,6.13
2018-09-12T02:33:15.743Z,6.97
2018-09-12T02:35:51.969Z,5.00
2018-09-12T02:38:22.703Z,6.53
2018-09-12T02:40:53.791Z,8.07
2018-09-12T02:43:26.059Z,4.87
2018-09-12T02:45:57.444Z,7.23
2018-09-12T02:48:27.758Z,7.53
2018-09-12T02:51:01.244Z,4.40
2018-09-12T02:53:33.489Z,5.63
2018-09-12T02:56:03.592Z,5.87
2018-09-12T02:58:34.413Z,10.37
2018-09-12T03:01:07.068Z,5.83
2018-09-12T03:03:37.491Z,4.73
2018-09-12T03:06:08.371Z,7.13
2018-09-12T03:08:39.150Z,6.97
2018-09-12T03:11:09.962Z,4.60
2018-09-12T03:13:41.939Z,6.87
2018-09-12T03:16:12.654Z,6.23
2018-09-12T03:18:43.388Z,6.33
2018-09-12T03:21:14.243Z,6.27
2018-09-12T03:23:45.042Z,6.03
2018-09-12T03:26:15.661Z,5.43
2018-09-12T03:28:47.846Z,5.67
2018-09-12T03:31:18.702Z,5.00
2018-09-12T03:33:49.530Z,4.80
2018-09-12T03:36:20.107Z,4.63
2018-09-12T03:38:51.359Z,4.70
2018-09-12T03:41:22.325Z,7.97
2018-09-12T03:43:53.058Z,5.97
2018-09-12T03:46:24.668Z,6.57
2018-09-12T03:48:55.631Z,7.90
2018-09-12T03:51:26.221Z,5.77
2018-09-12T03:53:56.948Z,5.77
2018-09-12T03:56:27.425Z,5.70
2018-09-12T03:58:58.445Z,9.33
2018-09-12T04:01:29.470Z,7.47
2018-09-12T04:04:00.498Z,5.53
2018-09-12T04:06:31.550Z,5.47
2018-09-12T04:09:02.924Z,6.00
2018-09-12T04:11:33.708Z,5.90
2018-09-12T04:14:04.599Z,8.90
2018-09-12T04:16:34.906Z,8.03
2018-09-12T04:19:06.009Z,6.13
2018-09-12T04:21:42.561Z,7.43
2018-09-12T04:24:14.519Z,5.93
2018-09-12T04:26:45.139Z,5.43
2018-09-12T04:29:16.013Z,5.93
2018-09-12T04:31:47.718Z,5.37
2018-09-12T04:34:18.541Z,9.93
2018-09-12T04:36:49.736Z,7.93
2018-09-12T04:39:21.525Z,7.83
2018-09-12T04:41:52.160Z,5.87
2018-09-12T04:44:22.769Z,6.10
2018-09-12T04:46:53.593Z,7.00
2018-09-12T04:49:31.972Z,7.37
2018-09-12T04:52:02.557Z,6.10
2018-09-12T04:54:32.546Z,5.17
2018-09-12T04:57:05.532Z,6.27
2018-09-12T04:59:36.729Z,10.10
2018-09-12T05:02:08.433Z,8.43
2018-09-12T05:04:39.210Z,8.20
2018-09-12T05:07:09.807Z,7.83
2018-09-12T05:09:42.493Z,5.47
2018-09-12T05:12:13.914Z,6.27
2018-09-12T05:14:45.694Z,7.10
2018-09-12T05:17:17.442Z,5.93
2018-09-12T05:19:48.590Z,7.43
2018-09-12T05:22:20.040Z,8.33
2018-09-12T05:24:51.159Z,8.43
2018-09-12T05:27:28.181Z,8.73
2018-09-12T05:30:12.454Z,5.83
2018-09-12T05:32:51.636Z,6.67
2018-09-12T05:35:23.486Z,7.53
2018-09-12T05:37:55.179Z,9.93
2018-09-12T05:40:26.501Z,10.43
2018-09-12T05:42:57.560Z,7.70
2018-09-12T05:45:28.104Z,8.80
2018-09-12T05:48:06.928Z,7.83
2018-09-12T05:50:38.876Z,6.20
2018-09-12T05:56:06.400Z,5.30
2018-09-12T05:59:02.915Z,7.03
2018-09-12T06:01:34.460Z,7.47
2018-09-12T06:04:06.120Z,7.53
2018-09-12T06:06:36.289Z,9.20
2018-09-12T06:09:27.993Z,10.40
2018-09-12T06:12:01.848Z,9.70
2018-09-12T06:14:36.748Z,9.33
2018-09-12T06:17:08.253Z,7.27
2018-09-12T06:19:38.456Z,20.57
2018-09-12T06:22:09.567Z,18.57
2018-09-12T06:24:39.708Z,30.10
2018-09-12T06:27:12.170Z,17.43
2018-09-12T06:29:52.774Z,24.97
2018-09-12T06:32:23.829Z,13.73
2018-09-12T06:34:58.692Z,10.63
2018-09-12T06:37:32.474Z,9.37
2018-09-12T06:40:03.240Z,13.77
2018-09-12T06:42:33.449Z,12.83
2018-09-12T06:45:03.545Z,13.73
2018-09-12T06:47:33.715Z,7.50
2018-09-12T06:50:04.937Z,13.07
2018-09-12T06:52:38.139Z,13.97
2018-09-12T06:55:11.539Z,11.27
2018-09-12T06:57:43.123Z,12.90
2018-09-12T07:00:13.920Z,14.50
2018-09-12T07:02:45.781Z,16.00
2018-09-12T07:05:17.893Z,13.83
2018-09-12T07:07:48.490Z,22.57
2018-09-12T07:13:07.376Z,16.27
2018-09-12T07:15:38.314Z,16.47
2018-09-12T07:18:10.060Z,17.77
2018-09-12T07:20:41.705Z,11.80
2018-09-12T07:23:12.380Z,11.73
2018-09-12T07:25:43.072Z,9.53
2018-09-12T07:28:16.719Z,12.07
2018-09-12T07:30:47.721Z,17.10
2018-09-12T07:33:20.217Z,15.43
2018-09-12T07:35:51.920Z,43.93
2018-09-12T07:38:24.145Z,92.20
2018-09-12T07:40:56.551Z,99.20
2018-09-12T07:43:29.157Z,42.50
2018-09-12T07:46:00.700Z,40.57
2018-09-12T07:48:35.352Z,28.97
2018-09-12T07:51:07.497Z,27.63
2018-09-12T07:53:46.848Z,21.83
2018-09-12T07:56:19.018Z,21.17
2018-09-12T07:58:53.241Z,18.77
2018-09-12T08:01:25.243Z,12.50
2018-09-12T08:03:57.844Z,18.67
2018-09-12T08:06:40.546Z,23.40
2018-09-12T08:09:13.541Z,18.37
2018-09-12T08:11:45.656Z,19.27
2018-09-12T08:14:17.870Z,21.50
2018-09-12T08:16:50.237Z,14.87
2018-09-12T08:19:22.461Z,9.50
2018-09-12T08:21:53.855Z,9.60
2018-09-12T08:24:28.363Z,7.87
2018-09-12T08:27:01.942Z,7.47
2018-09-12T08:29:32.681Z,6.23
2018-09-12T08:32:08.351Z,6.07
2018-09-12T08:34:41.081Z,7.70
2018-09-12T08:37:13.482Z,6.63
2018-09-12T08:39:44.732Z,5.77
2018-09-12T08:42:17.631Z,8.27
2018-09-12T08:44:48.813Z,7.23
2018-09-12T08:47:22.024Z,6.93
2018-09-12T08:49:54.512Z,6.20
2018-09-12T08:52:27.145Z,8.97
2018-09-12T08:55:01.979Z,8.17
2018-09-12T08:57:33.104Z,7.33
2018-09-12T09:00:05.517Z,8.97
2018-09-12T09:02:35.643Z,10.23
2018-09-12T09:05:08.196Z,8.23
2018-09-12T09:07:42.054Z,5.37
2018-09-12T09:10:15.745Z,11.77
2018-09-12T09:12:47.138Z,7.10
2018-09-12T09:15:19.386Z,5.23
2018-09-12T09:17:52.330Z,7.40
2018-09-12T09:20:30.147Z,8.40
2018-09-12T09:23:06.693Z,10.80
2018-09-12T09:25:41.237Z,8.70
2018-09-12T09:28:12.354Z,9.43
2018-09-12T09:30:44.693Z,12.47
2018-09-12T09:33:35.463Z,10.50
2018-09-12T09:36:09.496Z,12.43
2018-09-12T09:38:40.433Z,12.90
2018-09-12T09:41:13.713Z,13.30
2018-09-12T09:43:45.751Z,10.53
2018-09-12T09:46:17.701Z,10.23
2018-09-12T09:48:49.772Z,8.10
2018-09-12T09:51:30.622Z,8.33
2018-09-12T09:54:01.926Z,6.50
2018-09-12T09:56:35.029Z,11.60
2018-09-12T09:59:08.539Z,8.87
2018-09-12T10:01:43.881Z,7.60
2018-09-12T10:04:20.196Z,11.00
2018-09-12T10:06:54.890Z,10.20
2018-09-12T10:09:32.897Z,8.60
2018-09-12T10:12:04.110Z,6.07
2018-09-12T10:14:34.093Z,5.90
2018-09-12T10:17:03.484Z,5.27
2018-09-12T10:19:32.971Z,5.33
2018-09-12T10:22:02.464Z,4.57
2018-09-12T10:24:34.125Z,7.43
2018-09-12T10:27:03.614Z,6.07
2018-09-12T10:29:33.518Z,5.73
2018-09-12T10:32:03.118Z,9.27
2018-09-12T10:34:32.901Z,12.83
2018-09-12T10:37:03.363Z,7.60
2018-09-12T10:39:34.291Z,4.60
2018-09-12T10:42:03.781Z,7.07
2018-09-12T10:44:38.036Z,3.53
2018-09-12T10:47:14.795Z,3.80
2018-09-12T10:49:46.054Z,11.73
2018-09-12T10:52:15.495Z,3.37
2018-09-12T10:54:45.151Z,4.50
2018-09-12T10:57:14.741Z,4.67
2018-09-12T10:59:44.089Z,3.30
2018-09-12T11:02:20.521Z,3.17
2018-09-12T11:04:50.225Z,5.50
2018-09-12T11:07:21.342Z,8.30
2018-09-12T11:09:50.658Z,4.43
2018-09-12T11:12:36.812Z,5.07
2018-09-12T11:15:06.286Z,3.10
2018-09-12T11:17:54.870Z,7.20
2018-09-12T11:20:25.086Z,3.20
2018-09-12T11:22:54.183Z,4.83
2018-09-12T11:25:25.888Z,5.17
2018-09-12T11:27:55.694Z,4.30
2018-09-12T11:30:25.847Z,7.60
2018-09-12T11:33:00.407Z,4.93
2018-09-12T11:35:30.125Z,4.53
2018-09-12T11:38:02.482Z,4.57
2018-09-12T11:40:33.128Z,3.00
2018-09-12T11:43:03.836Z,21.53
2018-09-12T11:45:40.265Z,5.30
2018-09-12T11:48:09.865Z,6.93
2018-09-12T11:50:39.921Z,3.53
2018-09-12T11:53:10.952Z,6.43
2018-09-12T11:55:40.736Z,4.37
2018-09-12T11:58:11.188Z,4.87
2018-09-12T12:00:41.398Z,6.03
2018-09-12T12:03:15.517Z,8.17
2018-09-12T12:05:53.575Z,6.60
2018-09-12T12:08:24.335Z,4.93
2018-09-12T12:10:54.137Z,3.70
2018-09-12T12:13:24.801Z,3.83
2018-09-12T12:15:55.015Z,3.10
2018-09-12T12:18:30.301Z,5.27
2018-09-12T12:21:01.469Z,8.63
2018-09-12T12:23:32.465Z,6.37
2018-09-12T12:26:03.920Z,3.60
2018-09-12T12:28:35.476Z,4.37
2018-09-12T12:31:04.904Z,4.73
2018-09-12T12:33:35.143Z,3.73
2018-09-12T12:36:04.856Z,4.33
2018-09-12T12:38:37.819Z,4.37
2018-09-12T12:41:10.166Z,5.87
2018-09-12T12:43:41.199Z,8.00
2018-09-12T12:46:12.958Z,5.43
2018-09-12T12:48:43.611Z,3.53
2018-09-12T12:51:14.063Z,4.67
2018-09-12T12:53:44.698Z,5.23
2018-09-12T12:56:17.180Z,3.10
2018-09-12T12:58:47.433Z,4.83
2018-09-12T13:01:17.988Z,5.93
2018-09-12T13:03:51.705Z,4.33
2018-09-12T13:06:23.938Z,4.00
2018-09-12T13:08:54.965Z,6.60
2018-09-12T13:11:26.284Z,3.20
2018-09-12T13:13:56.565Z,5.83
2018-09-12T13:16:27.574Z,6.07
2018-09-12T13:18:59.873Z,4.70
2018-09-12T13:21:30.586Z,3.13
2018-09-12T13:24:04.530Z,6.83
2018-09-12T13:26:34.661Z,22.03
2018-09-12T13:29:06.388Z,3.47
2018-09-12T13:31:38.892Z,5.53
2018-09-12T13:34:10.025Z,6.03
2018-09-12T13:36:45.436Z,6.23
2018-09-12T13:39:33.960Z,4.17
2018-09-12T13:42:05.503Z,4.37
2018-09-12T13:44:36.313Z,4.77
2018-09-12T13:47:07.084Z,5.10
2018-09-12T13:49:39.653Z,5.23
2018-09-12T13:52:10.832Z,6.07
2018-09-12T13:54:41.560Z,5.53
2018-09-12T13:57:23.386Z,3.53
2018-09-12T13:59:56.565Z,4.87
2018-09-12T14:02:29.077Z,5.67
2018-09-12T14:05:23.236Z,4.97
2018-09-12T14:08:14.254Z,3.40
2018-09-12T14:10:46.504Z,8.70
2018-09-12T14:13:26.166Z,9.70
2018-09-12T14:15:57.571Z,2.80
2018-09-12T14:18:28.764Z,4.30
2018-09-12T14:20:59.766Z,3.03
2018-09-12T14:23:31.844Z,3.43
2018-09-12T14:26:03.007Z,7.47
2018-09-12T14:28:35.250Z,3.43
2018-09-12T14:31:06.491Z,9.40
2018-09-12T14:33:39.389Z,6.83
2018-09-12T14:36:11.471Z,4.17
2018-09-12T14:38:43.517Z,2.70
2018-09-12T14:41:15.442Z,2.87
2018-09-12T14:43:48.218Z,4.17
2018-09-12T14:46:19.944Z,4.67
2018-09-12T14:48:51.888Z,3.17
2018-09-12T14:51:23.082Z,5.13
2018-09-12T14:53:55.825Z,3.93
2018-09-12T14:56:27.758Z,7.10
2018-09-12T14:59:00.266Z,4.07
2018-09-12T15:01:32.147Z,6.40
2018-09-12T15:04:05.349Z,6.87
2018-09-12T15:06:36.923Z,6.30
2018-09-12T15:09:12.526Z,7.40
2018-09-12T15:11:44.370Z,3.97
2018-09-12T15:14:17.062Z,6.50
2018-09-12T15:16:49.304Z,2.97
2018-09-12T15:19:21.241Z,6.27
2018-09-12T15:21:53.368Z,4.00
2018-09-12T15:24:26.664Z,3.73
2018-09-12T15:26:58.874Z,6.97
2018-09-12T15:29:31.455Z,11.33
2018-09-12T15:32:03.581Z,3.53
2018-09-12T15:34:35.673Z,2.87
2018-09-12T15:37:07.937Z,3.67
2018-09-12T15:39:39.645Z,6.37
2018-09-12T15:42:14.897Z,3.30
2018-09-12T15:44:47.350Z,3.67
2018-09-12T15:47:19.969Z,4.73
2018-09-12T15:49:52.290Z,9.93
2018-09-12T15:52:24.731Z,3.27
2018-09-12T15:54:59.433Z,4.40
2018-09-12T15:57:32.713Z,4.60
2018-09-12T16:00:06.201Z,4.37
2018-09-12T16:02:39.495Z,6.63
2018-09-12T16:05:11.809Z,5.67
2018-09-12T16:07:44.266Z,4.70
2018-09-12T16:10:16.666Z,4.83
2018-09-12T16:12:52.755Z,9.97
2018-09-12T16:15:25.295Z,7.30
2018-09-12T16:17:58.285Z,3.77
2018-09-12T16:20:31.047Z,4.70
2018-09-12T16:23:04.001Z,4.00
2018-09-12T16:25:35.857Z,5.13
2018-09-12T16:28:08.425Z,5.33
2018-09-12T16:30:40.768Z,4.33
2018-09-12T16:33:15.376Z,5.07
2018-09-12T16:35:47.191Z,5.43
2018-09-12T16:38:22.442Z,3.77
2018-09-12T16:40:58.030Z,5.60
2018-09-12T16:43:31.614Z,3.30
2018-09-12T16:46:03.369Z,4.67
2018-09-12T16:48:39.108Z,3.30
2018-09-12T16:51:11.079Z,9.17
2018-09-12T16:53:45.725Z,5.43
2018-09-12T16:56:18.127Z,4.93
2018-09-12T16:58:51.005Z,3.70
2018-09-12T17:01:23.166Z,6.97
2018-09-12T17:03:56.252Z,4.37
2018-09-12T17:06:29.095Z,5.57
2018-09-12T17:09:01.981Z,6.13
2018-09-12T17:11:34.428Z,8.17
2018-09-12T17:14:05.943Z,5.30
2018-09-12T17:16:38.138Z,5.27
2018-09-12T17:19:10.515Z,5.77
2018-09-12T17:21:42.932Z,3.90
2018-09-12T17:24:15.351Z,4.50
2018-09-12T17:26:49.522Z,3.53
2018-09-12T17:29:21.357Z,5.00
2018-09-12T17:31:54.757Z,7.13
2018-09-12T17:34:27.963Z,4.60
2018-09-12T17:37:00.434Z,5.63
2018-09-12T17:39:32.218Z,4.03
2018-09-12T17:42:04.527Z,3.13
2018-09-12T17:44:37.912Z,5.27
2018-09-12T17:47:12.085Z,5.80
2018-09-12T17:49:43.995Z,6.40
2018-09-12T17:52:16.809Z,9.17
2018-09-12T17:54:48.831Z,4.93
2018-09-12T17:57:21.880Z,5.87
2018-09-12T17:59:55.259Z,4.17
2018-09-12T18:02:28.950Z,6.77
2018-09-12T18:05:02.003Z,6.03
2018-09-12T18:07:33.927Z,3.90
2018-09-12T18:10:05.980Z,3.83
2018-09-12T18:12:37.653Z,3.60
2018-09-12T18:15:09.975Z,4.87
2018-09-12T18:17:42.122Z,4.47
2018-09-12T18:20:14.350Z,7.60
2018-09-12T18:22:46.735Z,6.10
2018-09-12T18:25:21.512Z,3.63
2018-09-12T18:27:54.268Z,3.60
2018-09-12T18:30:27.273Z,4.63
2018-09-12T18:33:00.352Z,6.33
2018-09-12T18:35:32.509Z,4.70
2018-09-12T18:38:16.447Z,4.03
2018-09-12T18:40:49.894Z,5.07
2018-09-12T18:43:23.081Z,3.67
2018-09-12T18:45:58.269Z,4.27
2018-09-12T18:48:31.172Z,4.77
2018-09-12T18:51:07.392Z,4.17
2018-09-12T18:53:46.192Z,3.60
2018-09-12T18:56:34.167Z,8.77
2018-09-12T18:59:09.715Z,7.53
2018-09-12T19:01:52.897Z,10.63
2018-09-12T19:04:34.054Z,4.00
2018-09-12T19:07:06.451Z,7.00
2018-09-12T19:09:39.065Z,4.27
2018-09-12T19:12:12.094Z,4.00
2018-09-12T19:14:44.599Z,4.60
2018-09-12T19:17:16.956Z,4.20
2018-09-12T19:19:49.474Z,5.10
2018-09-12T19:22:22.379Z,9.63
2018-09-12T19:24:54.602Z,5.73
2018-09-12T19:27:27.606Z,11.97
2018-09-12T19:30:01.061Z,4.60
2018-09-12T19:32:33.139Z,5.63
2018-09-12T19:35:05.842Z,4.10
2018-09-12T19:37:38.078Z,6.33
2018-09-12T19:40:10.411Z,4.93
2018-09-12T19:42:43.802Z,6.37
2018-09-12T19:45:16.391Z,4.43
2018-09-12T19:47:50.578Z,6.77
2018-09-12T19:50:23.432Z,4.73
2018-09-12T19:52:55.829Z,5.27
2018-09-12T19:55:28.215Z,4.80
2018-09-12T19:58:01.080Z,4.40
2018-09-12T20:00:33.301Z,4.80
2018-09-12T20:03:05.483Z,4.53
2018-09-12T20:05:37.689Z,5.30
2018-09-12T20:08:09.913Z,6.30
2018-09-12T20:10:43.497Z,19.43
2018-09-12T20:13:17.461Z,7.50
2018-09-12T20:15:50.549Z,9.03
2018-09-12T20:18:23.467Z,7.83
2018-09-12T20:20:56.223Z,9.53
2018-09-12T20:23:29.760Z,9.43
2018-09-12T20:26:02.186Z,10.93
2018-09-12T20:28:41.554Z,5.67
2018-09-12T20:31:13.597Z,8.03
2018-09-12T20:33:45.845Z,9.53
2018-09-12T20:36:19.220Z,9.53
2018-09-12T20:38:51.361Z,7.50
2018-09-12T20:41:23.079Z,10.00
2018-09-12T20:43:54.963Z,8.07
2018-09-12T20:46:27.974Z,7.43
2018-09-12T20:48:59.585Z,11.00
2018-09-12T20:51:31.806Z,6.50
2018-09-12T20:54:04.958Z,6.97
2018-09-12T20:56:36.317Z,7.03
2018-09-12T20:59:08.508Z,7.50
2018-09-12T21:01:42.189Z,6.53
2018-09-12T21:04:16.124Z,7.63
2018-09-12T21:06:50.832Z,9.07
2018-09-12T21:09:21.358Z,6.80
2018-09-12T21:11:54.157Z,8.07
2018-09-12T21:14:25.129Z,7.83
2018-09-12T21:16:55.938Z,6.70
2018-09-12T21:19:26.549Z,9.90
2018-09-12T21:21:56.640Z,9.27
2018-09-12T21:24:28.013Z,9.97
2018-09-12T21:26:57.749Z,7.70
2018-09-12T21:29:27.445Z,7.27
2018-09-12T21:31:59.472Z,8.17
2018-09-12T21:34:29.076Z,6.20
2018-09-12T21:36:58.429Z,5.30
2018-09-12T21:39:28.003Z,6.03
2018-09-12T21:41:57.586Z,7.63
2018-09-12T21:44:27.360Z,7.10
2018-09-12T21:46:56.394Z,7.83
2018-09-12T21:49:27.244Z,7.70
2018-09-12T21:51:56.865Z,10.60
2018-09-12T21:54:26.225Z,8.23
2018-09-12T21:56:55.636Z,6.00
2018-09-12T21:59:26.198Z,9.10
2018-09-12T22:01:55.768Z,8.30
2018-09-12T22:04:25.276Z,7.33
2018-09-12T22:06:56.300Z,9.83
2018-09-12T22:09:25.743Z,8.67
2018-09-12T22:11:55.264Z,8.23
2018-09-12T22:14:25.627Z,10.93
2018-09-12T22:16:55.185Z,11.90
2018-09-12T22:19:24.668Z,7.57
2018-09-12T22:21:54.179Z,10.77
2018-09-12T22:24:23.638Z,11.30
2018-09-12T22:26:53.182Z,9.73
2018-09-12T22:29:23.563Z,9.37
2018-09-12T22:31:52.906Z,9.57
2018-09-12T22:34:22.520Z,13.17
2018-09-12T22:36:51.780Z,7.43
2018-09-12T22:39:22.149Z,6.13
2018-09-12T22:41:51.563Z,6.73
2018-09-12T22:44:20.870Z,8.77
2018-09-12T22:46:50.069Z,13.50
2018-09-12T22:49:20.339Z,8.63
2018-09-12T22:51:49.614Z,10.33
2018-09-12T22:54:19.194Z,8.87
2018-09-12T22:56:48.905Z,5.83
2018-09-12T22:59:19.213Z,10.90
2018-09-12T23:01:49.233Z,7.10
2018-09-12T23:04:19.608Z,6.93
2018-09-12T23:06:49.463Z,10.93
2018-09-12T23:09:18.959Z,8.53
2018-09-12T23:11:49.127Z,6.60
2018-09-12T23:14:18.511Z,6.67
2018-09-12T23:16:48.495Z,10.83
2018-09-12T23:19:18.589Z,7.13
2018-09-12T23:21:47.980Z,17.87
2018-09-12T23:24:17.793Z,11.80
2018-09-12T23:26:47.283Z,9.33
2018-09-12T23:29:16.395Z,9.93
2018-09-12T23:31:45.687Z,8.17
2018-09-12T23:34:14.999Z,8.27
2018-09-12T23:36:43.937Z,10.00
2018-09-12T23:39:14.351Z,7.30
2018-09-12T23:41:43.761Z,9.47
2018-09-12T23:44:13.085Z,17.27
2018-09-12T23:46:44.244Z,11.67
2018-09-12T23:49:14.292Z,15.10
2018-09-12T23:51:43.713Z,8.70
2018-09-12T23:54:13.946Z,10.87
2018-09-12T23:56:48.765Z,10.20
2018-09-12T23:59:18.042Z,16.40
